Time;durP1;ratioP1;P1;durP2;ratioP2;P2;SDS_P1;SDS_P2;PMS_P1;PMS_P2;Temp;Humidity;BMP_temperature;BMP_pressure;BME280_temperature;BME280_humidity;BME280_pressure;Samples;Min_cycle;Max_cycle;Signal;HPM_P1;HPM_P2
2024/01/17 00:02:15;;;;;;;15.38;8.02;;;11.30;78.70;;;;;;5092513;28;20024;-43
2024/01/17 00:04:46;;;;;;;14.60;8.18;;;11.20;79.80;;;;;;5092512;28;20417;-42
2024/01/17 00:07:11;;;;;;;12.02;7.85;;;11.20;80.60;;;;;;5092149;28;20024;-42
2024/01/17 00:09:37;;;;;;;14.52;8.65;;;11.50;80.40;;;;;;5092141;28;20569;-44
2024/01/17 00:12:04;;;;;;;14.52;8.13;;;11.70;78.90;;;;;;5092125;28;20390;-44
2024/01/17 00:14:30;;;;;;;13.38;7.88;;;11.60;78.10;;;;;;5092099;28;20020;-43
2024/01/17 00:16:57;;;;;;;13.32;7.43;;;11.60;78.00;;;;;;5091964;28;20457;-43
2024/01/17 00:19:22;;;;;;;13.18;7.43;;;11.50;78.10;;;;;;5092119;28;20057;-44
2024/01/17 00:21:50;;;;;;;12.18;7.13;;;11.40;78.30;;;;;;5092152;28;20036;-43
2024/01/17 00:24:16;;;;;;;12.68;7.72;;;11.30;78.50;;;;;;5091864;28;20401;-43
2024/01/17 00:26:42;;;;;;;14.77;7.68;;;11.20;79.30;;;;;;5091749;28;20016;-43
2024/01/17 00:29:07;;;;;;;14.82;8.00;;;11.10;80.50;;;;;;5092205;28;20375;-43
2024/01/17 00:31:33;;;;;;;14.23;8.07;;;11.40;80.70;;;;;;5091944;28;20032;-42
2024/01/17 00:34:00;;;;;;;13.18;7.65;;;11.60;79.20;;;;;;5091863;28;20020;-43
2024/01/17 00:36:25;;;;;;;12.65;7.07;;;11.60;78.40;;;;;;5092070;28;20035;-43
2024/01/17 00:38:51;;;;;;;16.02;7.93;;;11.60;78.20;;;;;;5092019;28;20382;-43
2024/01/17 00:41:18;;;;;;;12.93;7.45;;;11.50;78.40;;;;;;5091740;28;20379;-42
2024/01/17 00:43:44;;;;;;;12.55;7.35;;;11.40;78.40;;;;;;5091449;28;20031;-41
2024/01/17 00:46:11;;;;;;;14.90;6.72;;;11.30;78.60;;;;;;5091664;28;20024;-43
2024/01/17 00:48:36;;;;;;;14.25;7.80;;;11.20;78.80;;;;;;5091439;28;20020;-44
2024/01/17 00:51:02;;;;;;;14.82;7.72;;;11.10;80.40;;;;;;5091435;28;20069;-43
2024/01/17 00:53:28;;;;;;;14.07;7.63;;;11.30;80.80;;;;;;5089995;28;20508;-43
2024/01/17 00:55:55;;;;;;;13.20;7.57;;;11.50;79.50;;;;;;5090655;28;20036;-43
2024/01/17 00:58:21;;;;;;;12.13;7.25;;;11.60;78.50;;;;;;5091434;28;20055;-43
2024/01/17 01:00:47;;;;;;;13.10;7.57;;;11.60;78.20;;;;;;5090091;28;20075;-43
2024/01/17 01:03:12;;;;;;;11.30;6.88;;;11.50;78.30;;;;;;5091209;28;20095;-43
2024/01/17 01:05:39;;;;;;;11.98;7.10;;;11.40;78.50;;;;;;5091431;28;20028;-43
2024/01/17 01:08:04;;;;;;;13.15;7.25;;;11.30;78.60;;;;;;5091236;28;20024;-43
2024/01/17 01:10:30;;;;;;;12.57;7.25;;;11.20;78.80;;;;;;5091298;28;20031;-44
2024/01/17 01:12:56;;;;;;;10.45;6.50;;;11.00;80.20;;;;;;5091538;28;20049;-43
2024/01/17 01:15:22;;;;;;;12.70;7.30;;;11.20;80.80;;;;;;5091247;28;20080;-44
2024/01/17 01:17:47;;;;;;;13.23;7.38;;;11.50;80.60;;;;;;5091077;28;20024;-43
2024/01/17 01:20:13;;;;;;;11.98;6.95;;;11.60;78.70;;;;;;5091134;28;20028;-43
2024/01/17 01:22:38;;;;;;;11.35;6.57;;;11.60;78.40;;;;;;5091111;28;20020;-44
2024/01/17 01:25:05;;;;;;;12.05;6.47;;;11.50;78.40;;;;;;5091129;28;20040;-41
2024/01/17 01:27:32;;;;;;;11.73;6.50;;;11.40;78.60;;;;;;5106830;28;20024;-43
2024/01/17 01:29:57;;;;;;;11.82;6.68;;;11.30;78.70;;;;;;5091277;28;20020;-42
2024/01/17 01:32:23;;;;;;;9.32;5.95;;;11.20;78.90;;;;;;5091993;28;20117;-43
2024/01/17 01:34:49;;;;;;;8.63;6.07;;;11.00;80.20;;;;;;5091420;28;20099;-44
2024/01/17 01:37:14;;;;;;;11.15;6.80;;;11.10;80.90;;;;;;5091716;28;20016;-44
2024/01/17 01:39:40;;;;;;;10.55;6.07;;;11.40;80.30;;;;;;5091016;28;20050;-43
2024/01/17 01:42:05;;;;;;;10.48;6.22;;;11.60;79.00;;;;;;5091050;28;20078;-43
2024/01/17 01:44:31;;;;;;;10.10;6.28;;;11.50;78.50;;;;;;5090882;28;20046;-42
2024/01/17 01:46:58;;;;;;;9.43;6.22;;;11.50;78.60;;;;;;5090814;28;20066;-44
2024/01/17 01:49:24;;;;;;;10.13;6.40;;;11.40;78.60;;;;;;5090843;28;20405;-43
2024/01/17 01:51:52;;;;;;;10.35;6.13;;;11.30;78.70;;;;;;5090986;28;20027;-43
2024/01/17 01:54:21;;;;;;;9.77;6.25;;;11.20;78.90;;;;;;5090735;28;20038;-42
2024/01/17 01:56:48;;;;;;;14.18;6.55;;;11.10;80.20;;;;;;5090738;28;20028;-43
2024/01/17 01:59:17;;;;;;;10.50;6.57;;;11.10;80.90;;;;;;5090720;28;20035;-44
2024/01/17 02:01:43;;;;;;;11.38;6.53;;;11.40;80.50;;;;;;5090822;28;20024;-43
2024/01/17 02:04:10;;;;;;;8.88;5.78;;;11.60;79.10;;;;;;5090632;28;20024;-43
2024/01/17 02:06:38;;;;;;;10.93;5.82;;;11.60;78.70;;;;;;5090691;28;20099;-43
2024/01/17 02:09:04;;;;;;;9.50;5.55;;;11.50;78.70;;;;;;5094311;28;20024;-44
2024/01/17 02:11:30;;;;;;;10.07;6.10;;;11.40;78.80;;;;;;5094558;28;20072;-44
2024/01/17 02:13:56;;;;;;;9.02;5.88;;;11.30;79.00;;;;;;5094304;28;20106;-43
2024/01/17 02:16:25;;;;;;;11.98;6.55;;;11.20;79.20;;;;;;5095065;28;20032;-43
2024/01/17 02:18:51;;;;;;;10.25;6.00;;;11.00;80.40;;;;;;5095233;28;20024;-43
2024/01/17 02:21:17;;;;;;;8.90;6.05;;;11.10;81.30;;;;;;5094290;28;20049;-42
2024/01/17 02:23:43;;;;;;;9.07;5.85;;;11.40;80.90;;;;;;5093972;28;20040;-42
2024/01/17 02:26:09;;;;;;;8.75;5.97;;;11.60;79.50;;;;;;5094177;28;20039;-43
2024/01/17 02:28:34;;;;;;;9.40;5.68;;;11.60;79.00;;;;;;5095022;28;20396;-43
2024/01/17 02:31:01;;;;;;;8.90;5.65;;;11.50;78.90;;;;;;5094534;28;20020;-43
2024/01/17 02:33:27;;;;;;;9.13;5.70;;;11.40;79.10;;;;;;5093976;28;20127;-43
2024/01/17 02:35:53;;;;;;;9.52;5.88;;;11.30;79.30;;;;;;5094107;28;20056;-41
2024/01/17 02:38:18;;;;;;;8.82;5.63;;;11.20;79.40;;;;;;5093851;28;20052;-41
2024/01/17 02:40:44;;;;;;;10.32;6.13;;;11.10;80.60;;;;;;5093946;28;20028;-44
2024/01/17 02:43:10;;;;;;;9.38;5.72;;;11.10;81.50;;;;;;5093647;28;20541;-43
2024/01/17 02:45:35;;;;;;;9.35;6.40;;;11.30;81.40;;;;;;5093876;28;20103;-44
2024/01/17 02:48:02;;;;;;;11.02;6.25;;;11.50;79.90;;;;;;5093679;28;20713;-45
2024/01/17 02:50:28;;;;;;;8.57;5.75;;;11.60;79.30;;;;;;5093631;28;20393;-44
2024/01/17 02:52:54;;;;;;;10.63;5.78;;;11.50;79.10;;;;;;5093523;28;20024;-44
2024/01/17 02:55:20;;;;;;;10.60;5.93;;;11.40;79.30;;;;;;5093637;28;20099;-42
2024/01/17 02:57:46;;;;;;;8.93;5.57;;;11.30;79.50;;;;;;5093424;28;20462;-44
2024/01/17 03:00:12;;;;;;;10.18;5.32;;;11.20;79.70;;;;;;5093487;28;20028;-44
2024/01/17 03:02:38;;;;;;;8.63;5.70;;;11.20;80.30;;;;;;5093359;28;20551;-44
2024/01/17 03:05:05;;;;;;;9.65;6.03;;;11.10;81.50;;;;;;5095292;28;20032;-44
2024/01/17 03:07:31;;;;;;;8.52;5.57;;;11.40;81.70;;;;;;5093361;28;20016;-42
2024/01/17 03:09:57;;;;;;;9.82;5.88;;;11.70;80.10;;;;;;5093207;28;20031;-42
2024/01/17 03:12:23;;;;;;;8.07;5.40;;;11.70;79.30;;;;;;5093153;28;20024;-44
2024/01/17 03:14:49;;;;;;;8.98;5.43;;;11.70;79.10;;;;;;5093293;28;20035;-44
2024/01/17 03:17:16;;;;;;;8.93;5.75;;;11.60;79.20;;;;;;5093643;28;20024;-44
2024/01/17 03:19:46;;;;;;;8.73;5.03;;;11.50;79.20;;;;;;5092471;28;20019;-44
2024/01/17 03:22:12;;;;;;;7.05;4.85;;;11.50;79.40;;;;;;5094055;28;20441;-42
2024/01/17 03:24:38;;;;;;;8.05;5.07;;;11.40;79.60;;;;;;5092787;28;20089;-43
2024/01/17 03:27:04;;;;;;;9.43;5.03;;;11.30;81.00;;;;;;5092815;28;20111;-44
2024/01/17 03:29:29;;;;;;;9.30;5.95;;;11.50;81.30;;;;;;5093028;28;20032;-44
2024/01/17 03:31:55;;;;;;;8.38;5.47;;;11.80;80.00;;;;;;5092890;28;20534;-43
2024/01/17 03:34:21;;;;;;;8.27;5.38;;;11.80;79.10;;;;;;5092908;28;20440;-44
2024/01/17 03:36:46;;;;;;;8.45;5.30;;;11.70;78.80;;;;;;5092702;28;20394;-43
2024/01/17 03:39:12;;;;;;;8.50;4.95;;;11.70;79.00;;;;;;5092616;28;20469;-44
2024/01/17 03:41:38;;;;;;;8.80;5.25;;;11.60;79.10;;;;;;5092665;28;20379;-44
2024/01/17 03:44:04;;;;;;;7.70;4.95;;;11.50;79.20;;;;;;5092586;28;20039;-42
2024/01/17 03:46:29;;;;;;;9.23;5.53;;;11.40;79.40;;;;;;5092566;28;20032;-43
2024/01/17 03:48:55;;;;;;;8.05;5.20;;;11.30;80.80;;;;;;5092520;28;20020;-44
2024/01/17 03:51:21;;;;;;;8.23;5.38;;;11.50;81.40;;;;;;5092528;28;20532;-44
2024/01/17 03:53:47;;;;;;;7.80;5.38;;;11.70;80.40;;;;;;5092367;28;20028;-42
2024/01/17 03:56:13;;;;;;;8.43;5.75;;;11.80;79.30;;;;;;5092317;28;20027;-42
2024/01/17 03:58:42;;;;;;;7.85;4.85;;;11.70;78.90;;;;;;5093272;28;20423;-44
2024/01/17 04:01:11;;;;;;;6.65;4.90;;;11.70;79.10;;;;;;5092387;28;20074;-44
2024/01/17 04:03:37;;;;;;;7.68;4.95;;;11.60;79.20;;;;;;5092179;28;20020;-44
2024/01/17 04:06:03;;;;;;;7.28;4.78;;;11.50;79.30;;;;;;5092287;28;20066;-44
2024/01/17 04:08:29;;;;;;;9.25;4.97;;;11.40;79.60;;;;;;5092022;28;20077;-42
2024/01/17 04:10:55;;;;;;;6.80;4.78;;;11.30;80.80;;;;;;5092190;28;20103;-44
2024/01/17 04:13:20;;;;;;;7.13;5.03;;;11.40;81.50;;;;;;5092073;28;20103;-42
2024/01/17 04:15:46;;;;;;;8.32;5.28;;;11.70;80.80;;;;;;5092101;28;20484;-44
2024/01/17 04:18:12;;;;;;;7.32;5.28;;;11.80;79.50;;;;;;5091884;28;20082;-43
2024/01/17 04:20:37;;;;;;;8.13;4.93;;;11.80;79.20;;;;;;5092514;28;20099;-44
2024/01/17 04:23:08;;;;;;;7.72;5.32;;;11.70;79.20;;;;;;5091853;28;20501;-44
2024/01/17 04:25:35;;;;;;;7.25;4.78;;;11.60;79.40;;;;;;5092390;28;20066;-44
2024/01/17 04:28:04;;;;;;;9.00;5.00;;;11.50;79.50;;;;;;5091779;28;20119;-42
2024/01/17 04:30:30;;;;;;;8.07;4.90;;;11.40;79.80;;;;;;5091728;28;20031;-43
2024/01/17 04:32:55;;;;;;;8.90;5.50;;;11.30;81.00;;;;;;5092115;28;20028;-44
2024/01/17 04:35:21;;;;;;;9.23;5.97;;;11.30;81.70;;;;;;5090858;28;20123;-44
2024/01/17 04:37:47;;;;;;;7.78;5.30;;;11.60;81.10;;;;;;5090158;28;20073;-44
2024/01/17 04:40:12;;;;;;;7.30;4.63;;;11.80;79.80;;;;;;5091864;28;20088;-44
2024/01/17 04:42:38;;;;;;;8.02;4.80;;;11.70;79.40;;;;;;5091570;28;20040;-44
2024/01/17 04:45:05;;;;;;;7.10;4.85;;;11.70;79.50;;;;;;5091623;28;20044;-44
2024/01/17 04:47:32;;;;;;;8.00;5.03;;;11.50;79.60;;;;;;5091912;28;20074;-44
2024/01/17 04:49:58;;;;;;;7.75;4.88;;;11.50;79.70;;;;;;5092378;28;20377;-44
2024/01/17 04:52:24;;;;;;;7.43;4.65;;;11.40;79.90;;;;;;5092348;28;20032;-44
2024/01/17 04:54:49;;;;;;;7.45;5.05;;;11.20;81.00;;;;;;5093319;28;20381;-41
2024/01/17 04:57:15;;;;;;;5.60;4.50;;;11.20;81.80;;;;;;5091408;28;20027;-43
2024/01/17 04:59:42;;;;;;;7.97;5.45;;;11.50;81.70;;;;;;5091993;28;20103;-44
2024/01/17 05:02:08;;;;;;;7.30;5.00;;;11.70;80.20;;;;;;5091534;28;20026;-44
2024/01/17 05:04:34;;;;;;;8.90;5.13;;;11.70;79.70;;;;;;5091204;28;20131;-44
2024/01/17 05:06:59;;;;;;;6.78;4.72;;;11.60;79.60;;;;;;5092201;28;20099;-43
2024/01/17 05:09:25;;;;;;;7.88;4.80;;;11.50;79.80;;;;;;5091965;28;20046;-44
2024/01/17 05:11:50;;;;;;;6.40;4.30;;;11.40;79.90;;;;;;5091379;28;20020;-42
2024/01/17 05:14:16;;;;;;;7.95;4.90;;;11.40;80.10;;;;;;5091230;28;20025;-44
2024/01/17 05:16:42;;;;;;;6.82;4.65;;;11.20;80.90;;;;;;5091351;28;20044;-43
2024/01/17 05:19:08;;;;;;;8.63;5.32;;;11.20;82.00;;;;;;5106769;28;20028;-44
2024/01/17 05:21:34;;;;;;;8.02;5.07;;;11.40;82.10;;;;;;5091064;28;20028;-44
2024/01/17 05:23:59;;;;;;;9.80;5.53;;;11.70;80.70;;;;;;5092132;28;20043;-43
2024/01/17 05:26:25;;;;;;;8.48;5.38;;;11.70;80.00;;;;;;5092030;28;20103;-42
2024/01/17 05:28:51;;;;;;;8.05;5.00;;;11.60;79.80;;;;;;5091226;28;20035;-42
2024/01/17 05:31:17;;;;;;;7.70;4.82;;;11.50;79.90;;;;;;5091165;28;20462;-43
2024/01/17 05:33:44;;;;;;;8.18;4.95;;;11.40;80.10;;;;;;5091970;28;20076;-44
2024/01/17 05:36:09;;;;;;;9.68;5.05;;;11.30;80.20;;;;;;5091343;28;20032;-44
2024/01/17 05:38:37;;;;;;;9.65;5.20;;;11.20;80.70;;;;;;5091289;28;20052;-44
2024/01/17 05:41:03;;;;;;;9.20;5.18;;;11.10;82.10;;;;;;5090999;28;20042;-44
2024/01/17 05:43:30;;;;;;;8.90;5.18;;;11.40;82.40;;;;;;5093800;28;20028;-44
2024/01/17 05:45:57;;;;;;;10.23;5.35;;;11.60;81.00;;;;;;5094926;28;20027;-42
2024/01/17 05:48:24;;;;;;;8.25;5.25;;;11.70;80.20;;;;;;5093588;28;20028;-41
2024/01/17 05:50:49;;;;;;;6.97;4.78;;;11.60;80.00;;;;;;5094773;28;20020;-43
2024/01/17 05:53:15;;;;;;;7.07;4.80;;;11.50;80.10;;;;;;5094568;28;20042;-42
2024/01/17 05:55:41;;;;;;;7.05;4.45;;;11.40;80.20;;;;;;5095119;28;20024;-44
2024/01/17 05:58:07;;;;;;;6.60;4.03;;;11.30;80.40;;;;;;5095320;28;20043;-44
2024/01/17 06:00:33;;;;;;;7.20;4.97;;;11.20;80.60;;;;;;5094809;28;20028;-44
2024/01/17 06:02:58;;;;;;;7.50;5.00;;;11.10;82.10;;;;;;5096180;28;20042;-43
2024/01/17 06:05:24;;;;;;;8.65;5.40;;;11.30;82.60;;;;;;5094467;28;20031;-44
2024/01/17 06:07:49;;;;;;;8.80;5.45;;;11.60;81.40;;;;;;5094528;28;20068;-44
2024/01/17 06:10:15;;;;;;;7.65;4.72;;;11.60;80.40;;;;;;5094481;28;20108;-43
2024/01/17 06:12:41;;;;;;;7.15;4.63;;;11.60;80.20;;;;;;5094384;28;20069;-44
2024/01/17 06:15:08;;;;;;;6.60;4.28;;;11.50;80.30;;;;;;5094422;28;20016;-44
2024/01/17 06:17:34;;;;;;;7.80;5.05;;;11.40;80.40;;;;;;5094384;28;20042;-44
2024/01/17 06:20:00;;;;;;;7.30;4.55;;;11.30;80.50;;;;;;5094173;28;20020;-44
2024/01/17 06:22:26;;;;;;;7.35;4.70;;;11.20;80.80;;;;;;5094103;28;20024;-44
2024/01/17 06:24:52;;;;;;;7.93;4.63;;;11.10;82.20;;;;;;5095881;28;20032;-44
2024/01/17 06:27:17;;;;;;;7.20;4.85;;;11.20;82.70;;;;;;5094156;28;20031;-42
2024/01/17 06:29:44;;;;;;;8.38;5.15;;;11.50;81.70;;;;;;5094074;28;20099;-43
2024/01/17 06:32:11;;;;;;;7.15;4.68;;;11.60;80.60;;;;;;5094716;28;20016;-44
2024/01/17 06:34:36;;;;;;;7.22;4.63;;;11.60;80.30;;;;;;5092571;28;20111;-44
2024/01/17 06:37:03;;;;;;;5.97;4.07;;;11.40;80.30;;;;;;5094026;28;20099;-43
2024/01/17 06:39:30;;;;;;;7.30;4.90;;;11.40;80.50;;;;;;5093941;28;20450;-44
2024/01/17 06:41:56;;;;;;;6.63;4.60;;;11.30;80.60;;;;;;5094718;28;20490;-44
2024/01/17 06:44:21;;;;;;;7.00;4.78;;;11.20;80.80;;;;;;5094521;28;20043;-44
2024/01/17 06:46:47;;;;;;;6.07;4.53;;;11.10;82.20;;;;;;5095082;28;20016;-44
2024/01/17 06:49:13;;;;;;;7.78;5.22;;;11.20;82.80;;;;;;5093901;28;20016;-44
2024/01/17 06:51:39;;;;;;;8.32;5.22;;;11.40;82.10;;;;;;5094363;28;20497;-44
2024/01/17 06:54:04;;;;;;;6.95;4.72;;;11.60;80.90;;;;;;5092285;28;20043;-42
2024/01/17 06:56:32;;;;;;;6.47;4.40;;;11.50;80.50;;;;;;5094555;28;20111;-44
2024/01/17 06:58:58;;;;;;;6.28;4.30;;;11.40;80.50;;;;;;5093633;28;20021;-44
2024/01/17 07:01:24;;;;;;;7.18;4.43;;;11.30;80.70;;;;;;5093583;28;20532;-44
2024/01/17 07:03:50;;;;;;;6.47;4.45;;;11.20;80.80;;;;;;5093420;28;20054;-44
2024/01/17 07:06:15;;;;;;;8.05;4.88;;;11.10;81.10;;;;;;5093497;28;20594;-43
2024/01/17 07:08:41;;;;;;;7.22;4.65;;;11.00;82.30;;;;;;5093391;28;20027;-44
2024/01/17 07:11:10;;;;;;;7.90;5.25;;;11.10;83.10;;;;;;5093337;28;20497;-44
2024/01/17 07:13:37;;;;;;;6.53;4.75;;;11.40;82.40;;;;;;5093139;28;20026;-44
2024/01/17 07:16:03;;;;;;;6.90;4.68;;;11.60;81.10;;;;;;5093100;28;20482;-43
2024/01/17 07:18:29;;;;;;;6.90;4.80;;;11.50;80.60;;;;;;5093432;28;20024;-44
2024/01/17 07:20:54;;;;;;;8.07;4.20;;;11.40;80.60;;;;;;5093135;28;20049;-44
2024/01/17 07:23:21;;;;;;;8.68;4.30;;;11.30;80.80;;;;;;5092972;28;20112;-43
2024/01/17 07:25:47;;;;;;;5.88;4.20;;;11.20;80.90;;;;;;5093790;28;20063;-44
2024/01/17 07:28:14;;;;;;;7.20;4.90;;;11.20;81.10;;;;;;5092676;28;20031;-44
2024/01/17 07:30:41;;;;;;;7.35;4.40;;;11.00;82.30;;;;;;5093205;28;20410;-44
2024/01/17 07:33:07;;;;;;;6.30;4.40;;;11.10;83.20;;;;;;5092837;28;20035;-44
2024/01/17 07:35:33;;;;;;;8.40;5.00;;;11.40;82.60;;;;;;5092870;28;20031;-42
2024/01/17 07:37:58;;;;;;;7.57;4.65;;;11.50;81.20;;;;;;5092808;28;20024;-44
2024/01/17 07:40:24;;;;;;;7.47;4.60;;;11.50;80.80;;;;;;5092936;28;20363;-44
2024/01/17 07:42:51;;;;;;;6.57;4.40;;;11.40;80.70;;;;;;5091620;28;20420;-43
2024/01/17 07:45:17;;;;;;;6.88;4.63;;;11.30;80.90;;;;;;5092641;28;20028;-44
2024/01/17 07:47:43;;;;;;;7.50;4.50;;;11.20;81.20;;;;;;5093386;28;20047;-44
2024/01/17 07:50:11;;;;;;;7.15;4.68;;;11.10;81.20;;;;;;5092599;28;20485;-44
2024/01/17 07:52:38;;;;;;;6.78;4.35;;;11.00;82.30;;;;;;5092493;28;20055;-44
2024/01/17 07:55:04;;;;;;;7.63;4.82;;;11.00;83.20;;;;;;5092504;28;20052;-41
2024/01/17 07:57:30;;;;;;;7.40;4.78;;;11.30;83.10;;;;;;5092726;28;20508;-44
2024/01/17 07:59:56;;;;;;;7.00;4.65;;;11.50;81.60;;;;;;5092539;28;20051;-44
2024/01/17 08:02:22;;;;;;;5.85;4.13;;;11.50;81.00;;;;;;5092441;28;20016;-44
2024/01/17 08:04:49;;;;;;;6.03;4.28;;;11.40;80.90;;;;;;5092528;28;20050;-44
2024/01/17 08:07:14;;;;;;;5.68;4.22;;;11.30;81.80;;;;;;5092341;28;20032;-44
2024/01/17 08:09:41;;;;;;;4.82;3.78;;;11.20;81.20;;;;;;5092173;28;20089;-44
2024/01/17 08:12:07;;;;;;;6.65;4.13;;;11.20;81.40;;;;;;5092257;28;20024;-44
2024/01/17 08:14:34;;;;;;;6.35;4.30;;;11.10;82.30;;;;;;5092111;28;20057;-44
2024/01/17 08:17:01;;;;;;;5.80;4.50;;;11.00;82.90;;;;;;5091979;28;20023;-43
2024/01/17 08:19:26;;;;;;;7.13;4.43;;;11.00;82.20;;;;;;5092640;28;20095;-44
2024/01/17 08:21:53;;;;;;;6.18;4.18;;;11.00;82.20;;;;;;5092025;28;20617;-44
2024/01/17 08:24:19;;;;;;;6.78;4.38;;;11.00;82.50;;;;;;5091674;28;20030;-42
2024/01/17 08:26:45;;;;;;;7.22;4.57;;;10.90;82.40;;;;;;5091820;28;20147;-41
2024/01/17 08:29:10;;;;;;;5.35;3.90;;;10.90;82.60;;;;;;5092443;28;20419;-44
2024/01/17 08:31:36;;;;;;;5.35;3.70;;;10.90;82.60;;;;;;5091924;28;20024;-44
2024/01/17 08:34:03;;;;;;;6.18;3.70;;;10.90;82.80;;;;;;5091765;28;20056;-44
2024/01/17 08:36:29;;;;;;;5.38;3.85;;;10.90;82.80;;;;;;5091700;28;20409;-44
2024/01/17 08:38:56;;;;;;;5.00;3.55;;;10.90;82.80;;;;;;5091532;28;20024;-44
2024/01/17 08:41:21;;;;;;;5.57;3.65;;;10.90;82.90;;;;;;5091803;28;20428;-40
2024/01/17 08:43:47;;;;;;;4.68;3.55;;;10.90;82.90;;;;;;5091571;28;20031;-44
2024/01/17 08:46:13;;;;;;;5.47;3.85;;;10.90;83.00;;;;;;5091516;28;20024;-44
2024/01/17 08:48:40;;;;;;;5.10;3.83;;;10.90;83.40;;;;;;5091483;28;20377;-40
2024/01/17 08:51:07;;;;;;;4.63;3.20;;;10.90;82.90;;;;;;5091934;28;20024;-44
2024/01/17 08:53:33;;;;;;;4.82;3.50;;;10.90;83.00;;;;;;5091346;28;20073;-44
2024/01/17 08:56:00;;;;;;;4.88;3.70;;;10.90;82.90;;;;;;5091848;28;20028;-44
2024/01/17 08:58:26;;;;;;;4.43;3.50;;;10.90;83.00;;;;;;5091333;28;20103;-44
2024/01/17 09:00:52;;;;;;;5.20;3.65;;;11.00;82.90;;;;;;5091294;28;20115;-44
2024/01/17 09:03:18;;;;;;;5.45;4.00;;;11.00;82.90;;;;;;5091286;28;20024;-44
2024/01/17 09:05:44;;;;;;;5.82;3.78;;;11.00;82.90;;;;;;5091387;28;20237;-44
2024/01/17 09:08:09;;;;;;;5.25;3.70;;;11.00;82.80;;;;;;5091112;28;20026;-43
2024/01/17 09:10:35;;;;;;;5.10;3.50;;;11.00;82.80;;;;;;5091403;28;20024;-44
2024/01/17 09:13:01;;;;;;;4.35;3.15;;;11.00;82.80;;;;;;5091314;28;20123;-44
2024/01/17 09:15:26;;;;;;;4.93;3.22;;;11.00;82.80;;;;;;5091340;28;20065;-44
2024/01/17 09:17:52;;;;;;;4.25;3.05;;;11.10;82.70;;;;;;5093226;28;20028;-44
2024/01/17 09:20:18;;;;;;;5.05;3.55;;;11.10;82.80;;;;;;5095492;28;20036;-43
2024/01/17 09:22:44;;;;;;;5.00;3.53;;;11.10;82.70;;;;;;5095142;28;20032;-43
2024/01/17 09:25:09;;;;;;;4.22;3.05;;;11.10;82.70;;;;;;5095307;28;20039;-44
2024/01/17 09:27:36;;;;;;;4.88;3.40;;;11.10;82.70;;;;;;5095410;28;20024;-43
2024/01/17 09:30:02;;;;;;;5.00;3.40;;;11.10;82.70;;;;;;5095100;28;20501;-44
2024/01/17 09:32:28;;;;;;;3.85;3.00;;;11.10;82.60;;;;;;5095406;28;20023;-44
2024/01/17 09:34:53;;;;;;;4.90;3.13;;;11.10;82.60;;;;;;5095297;28;20036;-43
2024/01/17 09:37:20;;;;;;;4.22;3.28;;;11.10;82.60;;;;;;5095858;28;20032;-44
2024/01/17 09:39:47;;;;;;;5.13;2.83;;;11.10;83.30;;;;;;5094010;28;20059;-44
2024/01/17 09:42:16;;;;;;;4.28;2.95;;;11.10;82.60;;;;;;5095134;28;20046;-44
2024/01/17 09:44:43;;;;;;;5.43;3.17;;;11.20;82.60;;;;;;5094890;28;20028;-43
2024/01/17 09:47:13;;;;;;;4.45;3.15;;;11.20;82.60;;;;;;5094978;28;20438;-44
2024/01/17 09:49:39;;;;;;;4.18;3.20;;;11.20;82.50;;;;;;5094979;28;20016;-42
2024/01/17 09:52:07;;;;;;;4.32;3.00;;;11.20;82.50;;;;;;5094837;28;20070;-44
2024/01/17 09:54:41;;;;;;;5.75;3.10;;;11.20;82.50;;;;;;5094754;28;20428;-44
2024/01/17 09:57:07;;;;;;;4.53;3.03;;;11.20;82.50;;;;;;5094952;28;20028;-44
2024/01/17 09:59:38;;;;;;;4.38;3.08;;;11.20;82.50;;;;;;5094593;28;20323;-44
2024/01/17 10:02:05;;;;;;;4.55;3.03;;;11.20;82.50;;;;;;5095547;28;20189;-44
2024/01/17 10:04:31;;;;;;;4.47;2.90;;;11.20;82.50;;;;;;5094433;28;20059;-44
2024/01/17 10:06:57;;;;;;;4.57;2.95;;;11.20;82.40;;;;;;5094536;28;20040;-44
2024/01/17 10:09:26;;;;;;;3.95;2.90;;;11.30;82.50;;;;;;5094466;28;20035;-44
2024/01/17 10:11:52;;;;;;;5.75;3.08;;;11.30;82.50;;;;;;5094509;28;20062;-43
2024/01/17 10:14:19;;;;;;;4.18;2.85;;;11.30;82.50;;;;;;5094282;28;20022;-44
2024/01/17 10:16:46;;;;;;;4.00;2.70;;;11.30;82.50;;;;;;5094347;28;20032;-44
2024/01/17 10:19:11;;;;;;;3.53;2.60;;;11.30;82.40;;;;;;5094215;28;20036;-42
2024/01/17 10:21:38;;;;;;;3.55;2.70;;;11.30;82.40;;;;;;5094500;28;20024;-44
2024/01/17 10:24:04;;;;;;;3.90;2.75;;;11.30;82.40;;;;;;5094131;28;20032;-44
2024/01/17 10:26:30;;;;;;;3.55;2.50;;;11.30;82.30;;;;;;5094236;28;20020;-42
2024/01/17 10:28:57;;;;;;;3.97;2.60;;;11.30;82.30;;;;;;5094539;28;20049;-44
2024/01/17 10:31:24;;;;;;;3.72;2.83;;;11.30;82.30;;;;;;5094071;28;20412;-44
2024/01/17 10:33:51;;;;;;;3.42;2.47;;;11.40;82.40;;;;;;5094492;28;20035;-44
2024/01/17 10:36:17;;;;;;;3.75;2.50;;;11.40;82.40;;;;;;5094221;28;20528;-44
2024/01/17 10:38:43;;;;;;;3.78;2.30;;;11.40;82.40;;;;;;5093844;28;20039;-44
2024/01/17 10:41:09;;;;;;;3.95;2.47;;;11.40;82.40;;;;;;5093965;28;20031;-44
2024/01/17 10:44:00;;;;;;;3.00;2.22;;;11.30;82.30;;;;;;5093879;28;20428;-43
2024/01/17 10:46:26;;;;;;;3.38;2.50;;;11.40;82.40;;;;;;5094890;28;20016;-44
2024/01/17 10:48:51;;;;;;;3.53;2.60;;;11.40;82.30;;;;;;5093732;28;20522;-44
2024/01/17 10:51:22;;;;;;;3.05;2.20;;;11.40;82.30;;;;;;5093770;28;20359;-44
2024/01/17 10:53:49;;;;;;;3.45;2.47;;;11.40;82.30;;;;;;5093650;28;20024;-44
2024/01/17 10:56:20;;;;;;;3.03;2.35;;;11.40;82.30;;;;;;5094044;28;20028;-43
2024/01/17 10:58:53;;;;;;;4.00;2.55;;;11.40;82.30;;;;;;5093417;28;20409;-44
2024/01/17 11:01:47;;;;;;;2.80;2.30;;;11.40;82.30;;;;;;5093743;28;20137;-44
2024/01/17 11:04:35;;;;;;;2.50;2.03;;;11.40;82.30;;;;;;5093467;28;20044;-44
2024/01/17 11:07:01;;;;;;;2.78;2.33;;;11.50;82.40;;;;;;5093270;28;20073;-44
2024/01/17 11:09:29;;;;;;;3.60;2.50;;;11.50;82.40;;;;;;5093396;28;20020;-44
2024/01/17 11:11:57;;;;;;;3.55;2.22;;;11.40;82.40;;;;;;5093368;28;20030;-44
2024/01/17 11:14:25;;;;;;;3.60;2.20;;;11.40;82.30;;;;;;5093594;28;20016;-42
2024/01/17 11:16:54;;;;;;;3.25;2.10;;;11.40;82.30;;;;;;5093838;28;20024;-44
2024/01/17 11:19:21;;;;;;;3.17;2.22;;;11.50;83.10;;;;;;5093093;28;20077;-43
2024/01/17 11:21:48;;;;;;;3.00;2.10;;;11.50;82.40;;;;;;5093252;28;20024;-44
2024/01/17 11:24:50;;;;;;;2.78;2.13;;;11.50;82.40;;;;;;5093402;28;20385;-44
2024/01/17 11:27:22;;;;;;;3.20;2.30;;;11.50;82.30;;;;;;5093491;28;20050;-44
2024/01/17 11:29:48;;;;;;;2.65;1.90;;;11.50;82.40;;;;;;5092861;28;20032;-44
2024/01/17 11:32:17;;;;;;;2.40;2.10;;;11.50;82.40;;;;;;5092969;28;20089;-44
2024/01/17 11:34:43;;;;;;;2.85;2.25;;;11.50;82.40;;;;;;5093068;28;20034;-43
2024/01/17 11:37:09;;;;;;;3.30;2.17;;;11.50;82.40;;;;;;5093347;28;20024;-44
2024/01/17 11:39:34;;;;;;;3.10;2.13;;;11.50;83.20;;;;;;5092371;28;20062;-44
2024/01/17 11:42:00;;;;;;;2.78;2.28;;;11.50;82.50;;;;;;5092535;28;20035;-44
2024/01/17 11:44:26;;;;;;;4.20;1.90;;;11.50;82.50;;;;;;5092311;28;20024;-43
2024/01/17 11:46:54;;;;;;;3.13;2.03;;;11.50;82.60;;;;;;5092563;28;20033;-44
2024/01/17 11:49:39;;;;;;;4.00;2.22;;;11.50;82.60;;;;;;5092497;28;20048;-44
2024/01/17 11:52:09;;;;;;;3.13;2.20;;;11.50;82.60;;;;;;5092560;28;20024;-44
2024/01/17 11:54:38;;;;;;;2.10;1.63;;;11.50;82.90;;;;;;5092248;28;20032;-44
2024/01/17 11:57:08;;;;;;;2.30;1.85;;;11.50;82.70;;;;;;5092826;28;20436;-44
2024/01/17 11:59:34;;;;;;;2.45;1.77;;;11.50;82.60;;;;;;5092171;28;20016;-44
2024/01/17 12:02:00;;;;;;;2.58;1.90;;;11.60;82.60;;;;;;5092134;28;20455;-44
2024/01/17 12:04:26;;;;;;;3.30;1.90;;;11.60;82.60;;;;;;5091960;28;20071;-44
2024/01/17 12:06:52;;;;;;;3.13;1.73;;;11.60;82.60;;;;;;5092649;28;20024;-44
2024/01/17 12:09:18;;;;;;;2.78;2.25;;;11.60;82.60;;;;;;5092083;28;20436;-44
2024/01/17 12:11:48;;;;;;;2.53;1.95;;;11.60;82.60;;;;;;5092376;28;20052;-44
2024/01/17 12:14:17;;;;;;;2.97;2.08;;;11.60;82.50;;;;;;5093533;28;20020;-44
2024/01/17 12:16:45;;;;;;;3.25;1.67;;;11.70;82.60;;;;;;5093033;28;20036;-44
2024/01/17 12:19:11;;;;;;;2.33;1.70;;;11.70;82.60;;;;;;5092946;28;20099;-43
2024/01/17 12:21:37;;;;;;;2.17;1.63;;;11.70;82.60;;;;;;5092113;28;20024;-43
2024/01/17 12:24:04;;;;;;;2.55;1.88;;;11.70;82.60;;;;;;5091686;28;20453;-44
2024/01/17 12:26:33;;;;;;;3.38;1.70;;;11.70;82.50;;;;;;5091882;28;20073;-43
2024/01/17 12:29:09;;;;;;;3.20;2.10;;;11.70;82.50;;;;;;5091960;28;20532;-44
2024/01/17 12:31:35;;;;;;;2.08;1.80;;;11.80;82.60;;;;;;5091919;28;20027;-44
2024/01/17 12:34:01;;;;;;;2.55;1.60;;;11.70;82.50;;;;;;5091727;28;20394;-44
2024/01/17 12:36:27;;;;;;;2.33;1.75;;;11.70;82.40;;;;;;5081699;28;20028;-43
2024/01/17 12:38:52;;;;;;;3.17;2.15;;;11.80;82.50;;;;;;5086769;28;20024;-44
2024/01/17 12:41:18;;;;;;;3.92;2.67;;;11.80;83.90;;;;;;5091892;28;20111;-44
2024/01/17 12:43:46;;;;;;;3.40;2.08;;;11.80;85.20;;;;;;5091674;28;20032;-42